Time;durP1;ratioP1;P1;durP2;ratioP2;P2;SDS_P1;SDS_P2;PMS_P1;PMS_P2;Temp;Humidity;BMP_temperature;BMP_pressure;BME280_temperature;BME280_humidity;BME280_pressure;Samples;Min_cycle;Max_cycle;Signal;HPM_P1;HPM_P2
2023/09/03 04:04:59;;;;;;;2.40;2.20;;;15.60;99.90;;;;;;5978228;22;20525;-64
2023/09/03 04:07:25;;;;;;;2.57;2.37;;;15.50;99.90;;;;;;5053255;28;20775;-64
2023/09/03 04:09:51;;;;;;;1.90;1.80;;;15.50;99.90;;;;;;5035496;28;20183;-62
2023/09/03 04:12:16;;;;;;;3.07;2.27;;;15.50;99.90;;;;;;5053622;28;20180;-62
2023/09/03 04:14:42;;;;;;;2.93;2.63;;;15.50;99.90;;;;;;5052951;28;20281;-64
2023/09/03 04:17:07;;;;;;;2.20;2.00;;;15.50;99.90;;;;;;5053344;28;20166;-62
2023/09/03 04:19:33;;;;;;;1.97;1.87;;;15.40;99.90;;;;;;5053115;28;20638;-63
2023/09/03 04:21:59;;;;;;;1.80;1.70;;;15.50;99.90;;;;;;5052927;28;20656;-62
2023/09/03 04:24:25;;;;;;;2.67;2.10;;;15.40;99.90;;;;;;5052509;28;20460;-63
2023/09/03 04:26:50;;;;;;;2.70;2.17;;;15.50;99.90;;;;;;5053524;28;20499;-61
2023/09/03 04:29:16;;;;;;;1.93;1.83;;;15.40;99.90;;;;;;5052630;28;20213;-62
2023/09/03 04:31:42;;;;;;;2.07;1.93;;;15.40;99.90;;;;;;5053301;28;20185;-63
2023/09/03 04:34:08;;;;;;;2.30;2.10;;;15.50;99.90;;;;;;5052581;28;20201;-63
2023/09/03 04:36:34;;;;;;;2.53;2.27;;;15.50;99.90;;;;;;5052458;28;20186;-62
2023/09/03 04:39:00;;;;;;;2.20;2.03;;;15.50;99.90;;;;;;5053241;28;20785;-63
2023/09/03 04:41:25;;;;;;;2.10;2.00;;;15.50;99.90;;;;;;5053232;28;20259;-65
2023/09/03 04:44:06;;;;;;;2.50;1.77;;;15.50;99.90;;;;;;5052826;28;20205;-64
2023/09/03 04:46:31;;;;;;;2.17;1.83;;;15.40;99.90;;;;;;5052575;28;20189;-63
2023/09/03 04:48:57;;;;;;;2.20;2.10;;;15.50;99.90;;;;;;5052210;28;20494;-63
2023/09/03 04:51:22;;;;;;;1.63;1.53;;;15.40;99.90;;;;;;5052689;28;20180;-63
2023/09/03 04:53:48;;;;;;;2.37;2.10;;;15.40;99.90;;;;;;5052682;28;20548;-65
2023/09/03 04:56:14;;;;;;;3.03;2.17;;;15.50;99.90;;;;;;5053139;28;20194;-63
2023/09/03 04:58:39;;;;;;;1.80;1.70;;;15.40;99.90;;;;;;5052993;28;20177;-62
2023/09/03 05:01:17;;;;;;;1.53;1.43;;;15.40;99.90;;;;;;5053617;28;20280;-64
2023/09/03 05:03:44;;;;;;;1.60;1.50;;;15.40;99.90;;;;;;5052334;28;20216;-64
2023/09/03 05:06:14;;;;;;;4.20;2.83;;;15.40;99.90;;;;;;5052633;28;20485;-62
2023/09/03 05:08:39;;;;;;;2.40;1.77;;;15.40;99.90;;;;;;5052946;28;20423;-63
2023/09/03 05:11:11;;;;;;;2.47;2.10;;;15.50;99.90;;;;;;5052415;28;20391;-64
2023/09/03 05:13:37;;;;;;;1.97;1.87;;;15.50;99.90;;;;;;5052326;28;20391;-63
2023/09/03 05:16:03;;;;;;;2.37;2.17;;;15.50;99.90;;;;;;5052181;28;20486;-63
2023/09/03 05:18:28;;;;;;;1.70;1.60;;;15.60;99.90;;;;;;5052943;28;20424;-64
2023/09/03 05:20:54;;;;;;;2.57;2.37;;;15.60;99.90;;;;;;5052509;28;20780;-64
2023/09/03 05:23:20;;;;;;;3.63;1.63;;;15.70;99.90;;;;;;5052686;28;20201;-62
2023/09/03 05:25:45;;;;;;;1.97;1.87;;;15.80;99.90;;;;;;5052462;28;20199;-65
2023/09/03 05:28:12;;;;;;;2.93;2.73;;;15.80;99.90;;;;;;5052609;28;20552;-64
2023/09/03 05:30:38;;;;;;;2.50;2.30;;;15.80;99.90;;;;;;5052852;28;20588;-62
2023/09/03 05:33:03;;;;;;;2.87;1.90;;;15.90;99.90;;;;;;5052751;28;20405;-65
2023/09/03 05:35:29;;;;;;;2.40;2.30;;;16.00;99.90;;;;;;5051968;28;20290;-63
2023/09/03 05:37:55;;;;;;;2.03;1.93;;;16.00;99.90;;;;;;5052802;28;20844;-62
2023/09/03 05:40:21;;;;;;;2.93;2.17;;;16.00;99.90;;;;;;5053546;28;20464;-62
2023/09/03 05:42:48;;;;;;;3.00;1.93;;;16.10;99.90;;;;;;5056127;28;20213;-65
2023/09/03 05:45:13;;;;;;;2.23;1.77;;;16.10;99.90;;;;;;5055863;28;20194;-63
2023/09/03 05:47:39;;;;;;;2.57;2.37;;;16.20;99.90;;;;;;5055845;28;20443;-62
2023/09/03 05:50:06;;;;;;;2.30;2.10;;;16.30;99.90;;;;;;5055627;28;20203;-61
2023/09/03 05:52:31;;;;;;;2.33;2.10;;;16.40;99.90;;;;;;5056197;28;20599;-65
2023/09/03 05:54:57;;;;;;;2.60;2.27;;;16.40;99.90;;;;;;5055454;28;20440;-64
2023/09/03 05:57:23;;;;;;;2.93;1.90;;;16.50;99.90;;;;;;5055892;28;20184;-65
2023/09/03 05:59:52;;;;;;;2.50;2.30;;;16.60;99.90;;;;;;5055779;28;20700;-63
2023/09/03 06:02:17;;;;;;;2.90;2.70;;;16.60;99.90;;;;;;5055776;28;20451;-63
2023/09/03 06:04:44;;;;;;;2.70;2.43;;;16.70;99.90;;;;;;5054862;28;20445;-61
2023/09/03 06:07:09;;;;;;;2.50;1.50;;;16.80;99.90;;;;;;5055692;28;20184;-61
2023/09/03 06:09:38;;;;;;;5.23;2.50;;;16.90;99.90;;;;;;5055358;28;20913;-63
2023/09/03 06:12:04;;;;;;;2.17;1.97;;;17.00;99.90;;;;;;5055609;28;20173;-61
2023/09/03 06:14:30;;;;;;;1.90;1.80;;;17.20;99.90;;;;;;5055545;28;20778;-63
2023/09/03 06:16:55;;;;;;;3.33;2.30;;;17.30;99.90;;;;;;5055672;28;20394;-62
2023/09/03 06:19:22;;;;;;;2.40;2.20;;;17.40;99.90;;;;;;5055298;28;20486;-66
2023/09/03 06:21:48;;;;;;;2.23;2.13;;;17.50;99.90;;;;;;5055334;28;20169;-66
2023/09/03 06:24:15;;;;;;;2.17;2.03;;;17.60;99.90;;;;;;5054472;28;20482;-62
2023/09/03 06:26:44;;;;;;;1.73;1.60;;;17.70;99.90;;;;;;5055383;28;20528;-63
2023/09/03 06:29:09;;;;;;;2.07;1.87;;;17.80;99.90;;;;;;5055328;28;20410;-65
2023/09/03 06:31:35;;;;;;;1.70;1.60;;;18.00;99.90;;;;;;5055204;28;20380;-62
2023/09/03 06:34:01;;;;;;;3.53;2.27;;;18.10;99.90;;;;;;5055003;28;20185;-61
2023/09/03 06:36:26;;;;;;;2.00;1.90;;;18.20;99.90;;;;;;5055173;28;20201;-62
2023/09/03 06:38:52;;;;;;;1.90;1.80;;;18.30;99.90;;;;;;5054167;28;20263;-66
2023/09/03 06:41:17;;;;;;;1.47;1.47;;;18.50;99.90;;;;;;5055071;28;20193;-64
2023/09/03 06:43:43;;;;;;;1.90;1.70;;;18.60;99.90;;;;;;5054549;28;20235;-64
2023/09/03 06:46:08;;;;;;;2.10;1.60;;;18.80;99.90;;;;;;5037049;28;20193;-61
2023/09/03 06:48:34;;;;;;;1.50;1.40;;;18.90;99.90;;;;;;5055155;28;20531;-61
2023/09/03 06:51:00;;;;;;;1.60;1.50;;;19.00;99.90;;;;;;5036850;28;20188;-66
2023/09/03 06:53:25;;;;;;;1.77;1.67;;;19.10;99.90;;;;;;5053962;28;20189;-66
2023/09/03 06:55:52;;;;;;;1.87;1.20;;;19.30;99.90;;;;;;5054256;28;20211;-65
2023/09/03 06:58:17;;;;;;;1.50;1.40;;;19.40;99.90;;;;;;5054803;28;20177;-66
2023/09/03 07:00:43;;;;;;;5.53;1.77;;;19.40;99.90;;;;;;5052066;28;20517;-67
2023/09/03 07:03:09;;;;;;;1.60;1.50;;;19.40;99.90;;;;;;5044774;28;20293;-65
2023/09/03 07:05:35;;;;;;;2.00;1.20;;;19.50;99.90;;;;;;5034364;28;20244;-72
2023/09/03 07:08:00;;;;;;;3.20;2.10;;;19.60;99.90;;;;;;5053554;28;20534;-65
2023/09/03 07:10:27;;;;;;;1.80;1.50;;;19.60;99.90;;;;;;5054254;28;20300;-65
2023/09/03 07:12:53;;;;;;;2.03;1.80;;;19.80;99.90;;;;;;5054643;28;20418;-66
2023/09/03 07:15:18;;;;;;;1.93;1.80;;;20.00;99.90;;;;;;5034900;28;20594;-69
2023/09/03 07:17:44;;;;;;;1.70;1.60;;;20.10;99.90;;;;;;5053431;28;20176;-66
2023/09/03 07:20:10;;;;;;;1.57;1.47;;;20.20;99.90;;;;;;5053651;28;20283;-63
2023/09/03 07:22:35;;;;;;;3.20;2.03;;;20.20;99.90;;;;;;5053903;28;20176;-67
2023/09/03 07:25:01;;;;;;;2.07;1.87;;;20.30;99.90;;;;;;5053423;28;20526;-67
2023/09/03 07:27:27;;;;;;;1.60;1.50;;;20.40;99.90;;;;;;5054135;28;20168;-65
2023/09/03 07:29:53;;;;;;;1.63;1.53;;;20.50;99.90;;;;;;5054017;28;20170;-66
2023/09/03 07:32:21;;;;;;;2.23;2.00;;;20.60;99.90;;;;;;5053900;28;20170;-66
2023/09/03 07:34:46;;;;;;;1.40;1.30;;;20.80;99.90;;;;;;5053546;28;20980;-66
2023/09/03 07:37:12;;;;;;;2.00;1.57;;;20.90;99.90;;;;;;5053525;28;20491;-68
2023/09/03 07:39:38;;;;;;;2.27;2.10;;;21.10;99.90;;;;;;5052999;28;20182;-65
2023/09/03 07:42:04;;;;;;;2.50;2.30;;;21.20;99.90;;;;;;5049099;28;20190;-67
2023/09/03 07:44:29;;;;;;;1.90;1.80;;;21.40;99.90;;;;;;5050020;28;20220;-65
2023/09/03 07:46:55;;;;;;;2.40;2.20;;;21.50;99.90;;;;;;5060009;28;20398;-65
2023/09/03 07:49:20;;;;;;;5.17;4.50;;;21.70;99.90;;;;;;5032656;28;20201;-70
2023/09/03 07:51:46;;;;;;;2.73;2.30;;;21.80;99.90;;;;;;5048471;28;20184;-64
2023/09/03 07:54:15;;;;;;;1.60;1.50;;;22.00;99.90;;;;;;5046757;28;20170;-66
2023/09/03 07:56:41;;;;;;;2.43;2.23;;;22.30;99.90;;;;;;5049614;28;20280;-65
2023/09/03 07:59:07;;;;;;;2.63;2.30;;;22.90;99.90;;;;;;5047859;28;20382;-65
2023/09/03 08:01:32;;;;;;;1.97;1.87;;;23.30;99.90;;;;;;5047920;28;21938;-64
2023/09/03 08:03:58;;;;;;;2.60;2.40;;;23.70;99.90;;;;;;5042339;28;20278;-62
2023/09/03 08:06:23;;;;;;;1.80;1.70;;;24.40;99.90;;;;;;5052138;28;20244;-63
2023/09/03 08:08:53;;;;;;;2.30;2.20;;;24.80;99.90;;;;;;5053048;28;20178;-63
2023/09/03 08:11:22;;;;;;;3.17;2.87;;;25.20;99.90;;;;;;5052760;28;20219;-64
2023/09/03 08:13:57;;;;;;;2.80;2.60;;;25.80;99.90;;;;;;5052023;28;20431;-66
2023/09/03 08:16:23;;;;;;;3.20;3.00;;;26.40;99.90;;;;;;5033773;28;20429;-63
2023/09/03 08:18:49;;;;;;;2.80;2.60;;;26.90;99.90;;;;;;5051394;28;20417;-63
2023/09/03 08:21:14;;;;;;;2.97;2.70;;;27.40;99.90;;;;;;5051725;28;20610;-67
2023/09/03 08:23:41;;;;;;;3.17;2.87;;;27.80;99.90;;;;;;5051761;28;20197;-62
2023/09/03 08:26:07;;;;;;;2.37;2.17;;;27.90;99.90;;;;;;5051104;28;20195;-66
2023/09/03 08:28:33;;;;;;;2.80;2.60;;;27.90;99.90;;;;;;5034030;28;20419;-67
2023/09/03 08:30:59;;;;;;;2.70;2.50;;;28.00;99.90;;;;;;5051166;28;20416;-63
2023/09/03 08:33:25;;;;;;;2.70;2.30;;;28.40;99.90;;;;;;5051279;28;20435;-66
2023/09/03 08:35:51;;;;;;;2.20;2.00;;;28.60;99.80;;;;;;5051553;28;20900;-66
2023/09/03 08:38:16;;;;;;;2.60;2.40;;;28.90;99.60;;;;;;5052085;28;20634;-62
2023/09/03 08:40:43;;;;;;;2.70;2.50;;;29.40;98.20;;;;;;5052444;28;20169;-66
2023/09/03 08:43:10;;;;;;;3.10;2.80;;;29.90;97.80;;;;;;5052008;28;20549;-63
2023/09/03 08:45:43;;;;;;;2.53;2.33;;;30.50;96.70;;;;;;5052222;28;20541;-64
2023/09/03 08:48:10;;;;;;;2.40;2.30;;;30.90;95.50;;;;;;5052751;28;20382;-66
2023/09/03 08:50:36;;;;;;;2.17;2.07;;;31.00;94.90;;;;;;5053054;28;20465;-63
2023/09/03 08:53:02;;;;;;;2.70;2.50;;;31.40;94.70;;;;;;5052742;28;20424;-61
2023/09/03 08:55:29;;;;;;;2.70;2.50;;;32.10;93.40;;;;;;5052641;28;20279;-61
2023/09/03 08:57:56;;;;;;;2.50;2.30;;;32.40;93.00;;;;;;5052907;28;20470;-61
2023/09/03 09:00:22;;;;;;;5.07;2.63;;;32.60;92.00;;;;;;5034893;28;20462;-61
2023/09/03 09:02:49;;;;;;;2.50;2.30;;;32.40;91.70;;;;;;5052787;28;20412;-69
2023/09/03 09:05:15;;;;;;;2.90;2.70;;;32.00;92.40;;;;;;5052288;28;20590;-67
2023/09/03 09:07:41;;;;;;;4.00;2.37;;;32.00;92.50;;;;;;5052798;28;20478;-66
2023/09/03 09:10:13;;;;;;;2.40;2.30;;;31.80;92.30;;;;;;5052987;28;20419;-62
2023/09/03 09:13:02;;;;;;;2.50;2.40;;;31.90;92.50;;;;;;5034901;28;20465;-62
2023/09/03 09:15:28;;;;;;;2.40;2.27;;;32.20;91.90;;;;;;5054449;28;20482;-66
2023/09/03 09:17:53;;;;;;;2.53;2.33;;;32.30;91.60;;;;;;5056840;28;20811;-64
2023/09/03 09:20:19;;;;;;;2.47;2.30;;;32.40;91.60;;;;;;5056391;28;20205;-66
2023/09/03 09:22:49;;;;;;;2.67;2.47;;;32.50;91.70;;;;;;5056464;28;20239;-62
2023/09/03 09:25:21;;;;;;;2.07;1.97;;;32.30;91.70;;;;;;5056003;28;20258;-62
2023/09/03 09:27:47;;;;;;;2.77;2.57;;;31.90;92.00;;;;;;5056338;28;20423;-67
2023/09/03 09:30:21;;;;;;;2.10;2.00;;;31.90;91.70;;;;;;5056339;28;20402;-62
2023/09/03 09:33:01;;;;;;;2.50;2.40;;;32.10;91.70;;;;;;5056655;28;20177;-66
2023/09/03 09:35:27;;;;;;;2.03;1.93;;;32.40;91.50;;;;;;5055559;28;20440;-66
2023/09/03 09:37:52;;;;;;;2.47;2.37;;;32.90;91.30;;;;;;5038428;28;20423;-66
2023/09/03 09:40:30;;;;;;;2.20;2.10;;;33.40;89.90;;;;;;5056117;28;20256;-63
2023/09/03 09:42:58;;;;;;;2.70;2.40;;;33.50;88.70;;;;;;5056273;28;20181;-64
2023/09/03 09:45:24;;;;;;;2.07;1.97;;;33.70;88.40;;;;;;5055773;28;20499;-63
2023/09/03 09:48:08;;;;;;;1.50;1.50;;;33.60;87.80;;;;;;5055958;28;20498;-65
2023/09/03 09:50:35;;;;;;;2.10;2.00;;;33.60;86.00;;;;;;5055365;28;20188;-67
2023/09/03 09:53:01;;;;;;;2.07;1.97;;;33.70;86.70;;;;;;5056332;28;20415;-66
2023/09/03 09:55:32;;;;;;;1.60;1.50;;;33.60;86.80;;;;;;5055436;28;20422;-63
2023/09/03 09:57:58;;;;;;;1.53;1.53;;;33.30;86.80;;;;;;5056079;28;20411;-62
2023/09/03 10:00:37;;;;;;;1.50;1.50;;;33.00;87.90;;;;;;5055877;28;20416;-63
2023/09/03 10:03:05;;;;;;;1.70;1.60;;;32.80;89.20;;;;;;5055830;28;20406;-67
2023/09/03 10:05:31;;;;;;;1.63;1.53;;;32.90;88.60;;;;;;5055105;28;20455;-63
2023/09/03 10:07:59;;;;;;;1.53;1.43;;;33.20;87.90;;;;;;5055853;28;20408;-67
2023/09/03 10:10:24;;;;;;;1.40;1.30;;;33.20;86.50;;;;;;5055690;28;20174;-62
2023/09/03 10:12:50;;;;;;;1.60;1.50;;;33.20;87.90;;;;;;5055374;28;20423;-62
2023/09/03 10:15:16;;;;;;;1.60;1.50;;;33.20;88.10;;;;;;5055064;28;20251;-62
2023/09/03 10:17:45;;;;;;;1.60;1.50;;;33.20;89.00;;;;;;5055404;28;20193;-67
2023/09/03 10:20:15;;;;;;;1.80;1.70;;;33.10;86.70;;;;;;5055470;28;20205;-66
2023/09/03 10:22:41;;;;;;;2.97;1.40;;;33.10;87.70;;;;;;5054902;28;20507;-67
2023/09/03 10:25:20;;;;;;;1.43;1.33;;;33.00;86.40;;;;;;5055089;28;20562;-63
2023/09/03 10:27:52;;;;;;;1.63;1.53;;;32.80;86.50;;;;;;5036995;28;20412;-62
2023/09/03 10:30:28;;;;;;;1.50;1.40;;;32.60;85.60;;;;;;5055488;28;20926;-63
2023/09/03 10:32:54;;;;;;;1.70;1.60;;;32.60;87.20;;;;;;5055432;28;20431;-66
2023/09/03 10:35:20;;;;;;;1.20;1.20;;;33.00;87.00;;;;;;5054533;28;20481;-66
2023/09/03 10:37:45;;;;;;;1.50;1.40;;;32.90;85.80;;;;;;5055384;28;20407;-63
2023/09/03 10:40:22;;;;;;;1.17;1.17;;;33.00;86.00;;;;;;5055272;28;20184;-66
2023/09/03 10:42:52;;;;;;;1.03;1.03;;;32.80;85.00;;;;;;5055215;28;20575;-67
2023/09/03 10:45:20;;;;;;;1.57;1.47;;;32.80;85.20;;;;;;5054551;28;20463;-64
2023/09/03 10:48:02;;;;;;;1.40;1.33;;;33.00;84.20;;;;;;5055072;28;20478;-62
2023/09/03 10:50:48;;;;;;;1.00;1.00;;;32.90;84.30;;;;;;5054661;28;20416;-66
2023/09/03 10:53:39;;;;;;;3.13;1.63;;;32.80;87.90;;;;;;5055422;28;20404;-68
2023/09/03 10:56:16;;;;;;;0.97;0.97;;;32.80;87.10;;;;;;5055037;28;20940;-63
2023/09/03 10:59:01;;;;;;;1.50;1.40;;;32.60;86.10;;;;;;5054770;28;20404;-64
2023/09/03 11:01:32;;;;;;;1.17;1.07;;;32.60;85.60;;;;;;5054834;28;20423;-64
2023/09/03 11:03:59;;;;;;;1.00;1.00;;;32.40;85.70;;;;;;5036591;28;20460;-62
2023/09/03 11:06:31;;;;;;;1.43;1.33;;;32.20;86.30;;;;;;5054211;28;20554;-66
2023/09/03 11:08:59;;;;;;;1.27;1.17;;;31.90;87.20;;;;;;5054781;28;20408;-66
2023/09/03 11:11:30;;;;;;;1.10;1.10;;;31.60;88.20;;;;;;5054614;28;20487;-63
2023/09/03 11:13:56;;;;;;;1.43;1.33;;;31.10;90.10;;;;;;5053954;28;20424;-62
2023/09/03 11:16:51;;;;;;;1.50;1.10;;;30.70;91.10;;;;;;5054379;28;20543;-63
2023/09/03 11:19:17;;;;;;;1.20;1.20;;;30.10;90.90;;;;;;5036919;28;20440;-62
2023/09/03 11:21:42;;;;;;;1.10;1.10;;;29.80;92.20;;;;;;5054361;28;20864;-65
2023/09/03 11:24:16;;;;;;;1.03;1.03;;;29.60;92.90;;;;;;5053628;28;20213;-61
2023/09/03 11:26:42;;;;;;;1.57;1.20;;;29.50;93.50;;;;;;5054020;28;20177;-66
2023/09/03 11:29:28;;;;;;;0.80;0.80;;;29.20;93.00;;;;;;5053989;28;20422;-61
2023/09/03 11:31:54;;;;;;;1.33;1.23;;;29.00;93.20;;;;;;5053890;28;20924;-62
2023/09/03 11:34:23;;;;;;;1.00;1.00;;;28.60;93.90;;;;;;5053490;28;20503;-66
2023/09/03 11:36:49;;;;;;;1.10;1.10;;;28.30;94.00;;;;;;5036324;28;20239;-66
2023/09/03 11:39:16;;;;;;;0.90;0.90;;;28.30;94.70;;;;;;5053788;28;20407;-66
2023/09/03 11:41:46;;;;;;;1.17;1.17;;;28.30;93.40;;;;;;5054132;28;20424;-66
2023/09/03 11:44:21;;;;;;;1.43;1.33;;;28.20;92.20;;;;;;5053541;28;20474;-62
2023/09/03 11:47:01;;;;;;;1.50;1.40;;;28.00;93.10;;;;;;5036643;28;20393;-66
2023/09/03 11:49:26;;;;;;;1.40;1.30;;;27.90;93.70;;;;;;5053842;28;20367;-67
2023/09/03 11:51:53;;;;;;;1.50;1.40;;;27.90;94.40;;;;;;5053569;28;20825;-62
2023/09/03 11:54:25;;;;;;;1.50;1.40;;;27.80;95.10;;;;;;5053256;28;20211;-62
2023/09/03 11:56:58;;;;;;;2.03;1.87;;;27.70;95.50;;;;;;5053858;28;20791;-65
2023/09/03 11:59:24;;;;;;;1.80;1.70;;;27.70;96.10;;;;;;5053678;28;20421;-64
2023/09/03 12:01:51;;;;;;;1.90;1.80;;;27.60;95.60;;;;;;5035880;28;20968;-64
2023/09/03 12:04:17;;;;;;;1.57;1.47;;;27.50;95.70;;;;;;5053061;28;20459;-66
2023/09/03 12:06:42;;;;;;;1.80;1.70;;;27.50;96.50;;;;;;5053282;28;20839;-62
2023/09/03 12:09:08;;;;;;;1.73;1.63;;;27.50;97.20;;;;;;5053714;28;20235;-62
2023/09/03 12:11:34;;;;;;;1.30;1.30;;;27.60;97.20;;;;;;5053603;28;20180;-66
2023/09/03 12:13:59;;;;;;;1.60;1.50;;;27.70;96.30;;;;;;5035352;28;20181;-63
2023/09/03 12:16:25;;;;;;;1.50;1.40;;;27.80;96.30;;;;;;5053283;28;20251;-62
2023/09/03 12:18:56;;;;;;;1.30;1.20;;;27.80;96.70;;;;;;5053262;28;20186;-63
2023/09/03 12:21:31;;;;;;;1.90;1.70;;;27.70;96.30;;;;;;5053145;28;20528;-67
2023/09/03 12:23:57;;;;;;;1.20;1.20;;;27.50;96.70;;;;;;5053047;28;20426;-65
2023/09/03 12:26:23;;;;;;;1.50;1.40;;;27.30;96.70;;;;;;5053217;28;20435;-62
2023/09/03 12:28:49;;;;;;;1.63;1.53;;;27.30;97.00;;;;;;5053195;28;20181;-66
2023/09/03 12:31:15;;;;;;;1.70;1.60;;;27.20;97.30;;;;;;5053250;28;20396;-62
2023/09/03 12:33:50;;;;;;;1.67;1.57;;;27.10;96.40;;;;;;5053024;28;20537;-62
2023/09/03 12:36:20;;;;;;;1.43;1.43;;;27.20;95.30;;;;;;5053305;28;20235;-65
2023/09/03 12:38:55;;;;;;;1.30;1.20;;;27.20;96.20;;;;;;5052414;28;20404;-61
2023/09/03 12:41:22;;;;;;;1.10;1.10;;;27.10;96.20;;;;;;5053265;28;20388;-63
2023/09/03 12:43:48;;;;;;;1.90;1.30;;;27.20;96.80;;;;;;5052760;28;20461;-66
2023/09/03 12:46:14;;;;;;;1.10;1.10;;;27.30;97.10;;;;;;5052965;28;20427;-65
2023/09/03 12:48:42;;;;;;;1.13;1.13;;;27.20;97.10;;;;;;5053210;28;20169;-63
2023/09/03 12:51:09;;;;;;;1.60;1.37;;;27.30;96.70;;;;;;5056438;28;20178;-61
2023/09/03 12:53:35;;;;;;;1.07;1.07;;;27.40;96.10;;;;;;5056796;28;20420;-61
2023/09/03 12:56:00;;;;;;;1.00;1.00;;;27.50;95.80;;;;;;5056828;28;20903;-62
2023/09/03 12:58:26;;;;;;;3.43;1.87;;;27.60;95.60;;;;;;5056771;28;20181;-62
2023/09/03 13:00:52;;;;;;;0.90;0.83;;;27.60;95.40;;;;;;5056826;28;20518;-65
2023/09/03 13:03:18;;;;;;;1.73;1.30;;;27.60;95.40;;;;;;5057073;28;20212;-64
2023/09/03 13:05:43;;;;;;;1.03;0.93;;;27.60;95.70;;;;;;5056349;28;20409;-66
2023/09/03 13:08:09;;;;;;;1.03;1.03;;;27.60;95.90;;;;;;5057090;28;20212;-64
2023/09/03 13:10:34;;;;;;;1.00;0.93;;;27.50;94.80;;;;;;5056977;28;20181;-66
2023/09/03 13:13:01;;;;;;;0.80;0.80;;;27.50;94.60;;;;;;5056560;28;20184;-66
2023/09/03 13:15:27;;;;;;;0.90;0.90;;;27.50;93.90;;;;;;5056013;28;20205;-66
2023/09/03 13:17:52;;;;;;;0.80;0.80;;;27.50;93.80;;;;;;5056781;28;20417;-64
2023/09/03 13:20:18;;;;;;;0.90;0.90;;;27.50;94.20;;;;;;5056951;28;20616;-65
2023/09/03 13:22:44;;;;;;;1.00;1.00;;;27.40;94.70;;;;;;5056513;28;20200;-67
2023/09/03 13:25:09;;;;;;;1.10;1.00;;;27.30;94.90;;;;;;5056038;28;20212;-62
2023/09/03 13:27:35;;;;;;;0.90;0.90;;;27.20;95.30;;;;;;5056466;28;20515;-66
2023/09/03 13:30:01;;;;;;;0.90;0.90;;;27.10;94.60;;;;;;5056266;28;20180;-61
2023/09/03 13:32:26;;;;;;;0.73;0.73;;;27.10;94.60;;;;;;5056514;28;20183;-64
2023/09/03 13:34:52;;;;;;;0.83;0.77;;;27.20;95.60;;;;;;5055937;28;20702;-62
2023/09/03 13:37:17;;;;;;;1.00;1.00;;;27.20;95.40;;;;;;5056372;28;20188;-63
2023/09/03 13:39:43;;;;;;;0.77;0.77;;;27.30;95.70;;;;;;5056372;28;20215;-65
2023/09/03 13:42:08;;;;;;;0.60;0.60;;;27.40;96.10;;;;;;5056444;28;20196;-66
2023/09/03 13:44:34;;;;;;;0.60;0.60;;;27.50;94.90;;;;;;5055690;28;20264;-64
2023/09/03 13:47:00;;;;;;;0.83;0.83;;;27.50;94.90;;;;;;5056379;28;20556;-66
2023/09/03 13:49:28;;;;;;;1.40;1.10;;;27.50;95.00;;;;;;5056218;28;20172;-65
2023/09/03 13:51:54;;;;;;;1.00;0.93;;;27.50;94.60;;;;;;5056036;28;20181;-64
2023/09/03 13:54:19;;;;;;;0.97;0.97;;;27.50;95.00;;;;;;5055632;28;20415;-66
2023/09/03 13:56:45;;;;;;;1.30;1.20;;;27.50;94.80;;;;;;5056224;28;20173;-62
2023/09/03 13:59:10;;;;;;;0.80;0.80;;;27.50;93.90;;;;;;5055880;28;20596;-67
2023/09/03 14:01:39;;;;;;;0.93;0.93;;;27.40;93.80;;;;;;5055859;28;20192;-66
2023/09/03 14:04:05;;;;;;;1.10;1.00;;;27.20;94.10;;;;;;5037760;28;20208;-63
2023/09/03 14:06:30;;;;;;;0.93;0.90;;;27.10;94.70;;;;;;5055795;28;20984;-63
2023/09/03 14:08:57;;;;;;;0.87;0.87;;;27.10;94.50;;;;;;5055711;28;20261;-65
2023/09/03 14:11:23;;;;;;;1.30;1.00;;;27.10;94.40;;;;;;5055915;28;20172;-62
2023/09/03 14:13:49;;;;;;;0.97;0.90;;;27.00;93.90;;;;;;5055042;28;20407;-62
2023/09/03 14:16:17;;;;;;;1.30;0.80;;;26.90;94.40;;;;;;5055608;28;20424;-63
2023/09/03 14:18:43;;;;;;;0.77;0.77;;;26.80;94.20;;;;;;5055783;28;20863;-62
2023/09/03 14:21:09;;;;;;;1.00;1.00;;;26.80;94.60;;;;;;5055718;28;20895;-62
2023/09/03 14:23:34;;;;;;;1.20;1.20;;;26.80;94.50;;;;;;5055109;28;20466;-62
2023/09/03 14:26:00;;;;;;;0.90;0.90;;;26.80;94.50;;;;;;5055412;28;20296;-62
2023/09/03 14:28:26;;;;;;;0.70;0.67;;;26.90;94.40;;;;;;5055164;28;20183;-66
2023/09/03 14:30:51;;;;;;;2.30;1.20;;;26.90;94.20;;;;;;5055390;28;20173;-66
2023/09/03 14:33:17;;;;;;;0.70;0.70;;;26.90;94.60;;;;;;5055341;28;20365;-65
2023/09/03 14:35:42;;;;;;;1.13;1.10;;;27.00;94.80;;;;;;5054785;28;20279;-65
2023/09/03 14:38:08;;;;;;;0.83;0.83;;;27.00;95.60;;;;;;5055179;28;20220;-62
2023/09/03 14:40:34;;;;;;;1.10;1.10;;;27.00;94.60;;;;;;5055363;28;20187;-65
2023/09/03 14:43:00;;;;;;;1.10;1.10;;;27.10;94.30;;;;;;5054798;28;20293;-65
2023/09/03 14:45:26;;;;;;;0.97;0.97;;;27.10;93.80;;;;;;5054663;28;20198;-64
2023/09/03 14:47:51;;;;;;;0.87;0.87;;;27.00;93.60;;;;;;5055123;28;20406;-60
2023/09/03 14:50:22;;;;;;;0.90;0.90;;;26.90;94.20;;;;;;5037294;28;20420;-64
2023/09/03 14:52:47;;;;;;;1.00;0.83;;;26.80;93.80;;;;;;5054927;28;20167;-61
2023/09/03 14:55:13;;;;;;;3.60;1.00;;;26.80;93.60;;;;;;5054497;28;20433;-62
2023/09/03 14:57:40;;;;;;;1.00;1.00;;;26.80;93.80;;;;;;5054784;28;20563;-65
2023/09/03 15:00:06;;;;;;;1.20;1.10;;;26.80;93.70;;;;;;5054778;28;20183;-65
2023/09/03 15:02:31;;;;;;;0.87;0.87;;;26.80;93.90;;;;;;5054676;28;20843;-64
2023/09/03 15:04:57;;;;;;;0.80;0.80;;;26.80;93.40;;;;;;5054035;28;20522;-62
2023/09/03 15:07:23;;;;;;;1.03;1.03;;;26.70;93.60;;;;;;5054529;28;20183;-63
2023/09/03 15:09:52;;;;;;;1.17;1.10;;;26.60;93.60;;;;;;5054751;28;20209;-62
2023/09/03 15:12:18;;;;;;;0.83;0.80;;;26.60;93.80;;;;;;5053587;28;20175;-61
2023/09/03 15:14:44;;;;;;;1.30;1.20;;;26.60;94.10;;;;;;5051835;28;20445;-70
2023/09/03 15:17:10;;;;;;;0.70;0.70;;;26.60;93.70;;;;;;5053073;28;20182;-72
2023/09/03 15:19:35;;;;;;;0.80;0.80;;;26.50;93.60;;;;;;5054180;28;20413;-64
2023/09/03 15:22:01;;;;;;;0.80;0.80;;;26.40;94.10;;;;;;5035870;28;20197;-63
2023/09/03 15:24:26;;;;;;;1.20;1.10;;;26.30;93.60;;;;;;5054117;28;20290;-65
2023/09/03 15:26:52;;;;;;;1.03;0.83;;;26.20;93.70;;;;;;5055235;28;20193;-66
2023/09/03 15:29:18;;;;;;;0.90;0.90;;;26.00;93.60;;;;;;5054536;28;20662;-67
2023/09/03 15:31:43;;;;;;;1.10;1.10;;;26.00;93.80;;;;;;5054404;28;20170;-62
2023/09/03 15:34:10;;;;;;;1.00;1.00;;;25.90;93.60;;;;;;5054126;28;20201;-68
2023/09/03 15:36:37;;;;;;;0.80;0.80;;;25.80;93.40;;;;;;5054002;28;20192;-67
2023/09/03 15:39:03;;;;;;;1.30;0.90;;;25.70;93.30;;;;;;5036167;28;20416;-69
2023/09/03 15:41:28;;;;;;;1.00;1.00;;;25.50;93.50;;;;;;5053860;28;20812;-64
2023/09/03 15:43:56;;;;;;;0.80;0.80;;;25.40;93.80;;;;;;5053650;28;20456;-69
2023/09/03 15:46:22;;;;;;;1.13;1.07;;;25.40;94.00;;;;;;5050579;28;20200;-63
2023/09/03 15:48:48;;;;;;;1.27;0.93;;;25.30;94.40;;;;;;5053744;28;20499;-67
2023/09/03 15:51:14;;;;;;;1.07;0.97;;;25.30;94.00;;;;;;5053067;28;20425;-69
2023/09/03 15:53:39;;;;;;;0.73;0.73;;;25.30;93.80;;;;;;5053203;28;20173;-65
2023/09/03 15:56:05;;;;;;;1.53;0.90;;;25.20;93.50;;;;;;5035923;28;20190;-64
2023/09/03 15:58:30;;;;;;;0.70;0.70;;;25.20;93.30;;;;;;5053520;28;20184;-69
2023/09/03 16:01:02;;;;;;;0.60;0.60;;;25.30;93.50;;;;;;5053770;28;20170;-67
2023/09/03 16:03:27;;;;;;;2.30;1.00;;;25.30;93.50;;;;;;5053491;28;20202;-70
2023/09/03 16:05:55;;;;;;;1.17;1.07;;;25.30;93.50;;;;;;5052921;28;20455;-68
2023/09/03 16:08:20;;;;;;;0.90;0.90;;;25.30;93.60;;;;;;5053298;28;20181;-67
2023/09/03 16:10:49;;;;;;;1.03;1.03;;;25.30;93.80;;;;;;5053820;28;20400;-64
2023/09/03 16:13:15;;;;;;;1.10;1.10;;;25.30;93.70;;;;;;5053704;28;20211;-62
2023/09/03 16:15:42;;;;;;;1.00;1.00;;;25.20;94.10;;;;;;5052668;28;20815;-71
2023/09/03 16:18:08;;;;;;;2.00;1.23;;;25.20;94.30;;;;;;5052858;28;20413;-64
2023/09/03 16:20:37;;;;;;;1.13;1.03;;;25.10;94.60;;;;;;5053193;28;20394;-63
2023/09/03 16:23:03;;;;;;;1.50;1.40;;;25.10;94.80;;;;;;5053095;28;20180;-62
2023/09/03 16:25:29;;;;;;;0.63;0.63;;;25.10;94.90;;;;;;5052007;28;20764;-62
2023/09/03 16:27:55;;;;;;;1.20;1.20;;;25.00;95.30;;;;;;5053012;28;20180;-61
2023/09/03 16:30:21;;;;;;;0.80;0.80;;;25.10;95.60;;;;;;5053424;28;20378;-68
2023/09/03 16:32:46;;;;;;;0.67;0.67;;;25.00;95.50;;;;;;5052918;28;20181;-66
2023/09/03 16:35:12;;;;;;;0.80;0.80;;;25.00;95.70;;;;;;5052958;28;20193;-62
2023/09/03 16:37:38;;;;;;;0.67;0.67;;;24.90;95.40;;;;;;5052876;28;20223;-70
2023/09/03 16:40:04;;;;;;;1.13;1.10;;;24.90;95.90;;;;;;5053309;28;20209;-68
2023/09/03 16:42:31;;;;;;;1.20;1.10;;;24.80;95.50;;;;;;5035221;28;20178;-69
2023/09/03 16:44:57;;;;;;;1.47;1.37;;;24.80;95.70;;;;;;5052240;28;20486;-61
2023/09/03 16:47:25;;;;;;;1.03;1.03;;;24.70;95.90;;;;;;5052665;28;20398;-60
2023/09/03 16:49:52;;;;;;;1.00;1.00;;;24.60;96.30;;;;;;5053043;28;20387;-64
2023/09/03 16:52:18;;;;;;;0.80;0.80;;;24.60;96.30;;;;;;5053046;28;20881;-70